sensor_id;sensor_type;location;lat;lon;timestamp;temperature;humidity
65472;DHT22;52068;50.710;14.492;2023-01-20T00:02:24;24.50;33.94
65472;DHT22;52068;50.710;14.492;2023-01-20T00:04:50;24.36;34.19
65472;DHT22;52068;50.710;14.492;2023-01-20T00:07:15;24.40;34.02
65472;DHT22;52068;50.710;14.492;2023-01-20T00:09:40;24.59;33.81
65472;DHT22;52068;50.710;14.492;2023-01-20T00:12:05;24.83;33.38
65472;DHT22;52068;50.710;14.492;2023-01-20T00:14:31;25.05;32.85
65472;DHT22;52068;50.710;14.492;2023-01-20T00:16:56;25.25;32.67
65472;DHT22;52068;50.710;14.492;2023-01-20T00:19:21;25.38;32.40
65472;DHT22;52068;50.710;14.492;2023-01-20T00:21:47;25.42;32.33
65472;DHT22;52068;50.710;14.492;2023-01-20T00:24:12;25.31;32.42
65472;DHT22;52068;50.710;14.492;2023-01-20T00:26:38;25.21;32.57
65472;DHT22;52068;50.710;14.492;2023-01-20T00:29:03;25.03;32.98
65472;DHT22;52068;50.710;14.492;2023-01-20T00:31:29;24.84;33.19
65472;DHT22;52068;50.710;14.492;2023-01-20T00:33:55;24.59;33.63
65472;DHT22;52068;50.710;14.492;2023-01-20T00:36:21;24.36;33.90
65472;DHT22;52068;50.710;14.492;2023-01-20T00:38:47;24.17;34.06
65472;DHT22;52068;50.710;14.492;2023-01-20T00:41:12;24.01;34.37
65472;DHT22;52068;50.710;14.492;2023-01-20T00:43:38;23.93;34.46
65472;DHT22;52068;50.710;14.492;2023-01-20T00:46:03;24.09;34.38
65472;DHT22;52068;50.710;14.492;2023-01-20T00:48:29;24.29;33.99
65472;DHT22;52068;50.710;14.492;2023-01-20T00:50:54;24.71;33.47
65472;DHT22;52068;50.710;14.492;2023-01-20T00:53:20;25.34;32.48
65472;DHT22;52068;50.710;14.492;2023-01-20T00:55:45;26.10;31.32
65472;DHT22;52068;50.710;14.492;2023-01-20T00:58:10;26.91;30.06
65472;DHT22;52068;50.710;14.492;2023-01-20T01:00:36;27.68;28.93
65472;DHT22;52068;50.710;14.492;2023-01-20T01:03:01;28.42;27.90
65472;DHT22;52068;50.710;14.492;2023-01-20T01:05:26;29.04;27.04
65472;DHT22;52068;50.710;14.492;2023-01-20T01:07:52;29.51;26.49
65472;DHT22;52068;50.710;14.492;2023-01-20T01:10:17;29.68;26.24
65472;DHT22;52068;50.710;14.492;2023-01-20T01:12:42;29.75;26.13
65472;DHT22;52068;50.710;14.492;2023-01-20T01:15:08;29.54;26.29
65472;DHT22;52068;50.710;14.492;2023-01-20T01:17:33;29.27;26.67
65472;DHT22;52068;50.710;14.492;2023-01-20T01:19:59;28.83;27.28
65472;DHT22;52068;50.710;14.492;2023-01-20T01:22:24;28.36;27.86
65472;DHT22;52068;50.710;14.492;2023-01-20T01:24:49;27.83;28.49
65472;DHT22;52068;50.710;14.492;2023-01-20T01:27:14;27.39;29.17
65472;DHT22;52068;50.710;14.492;2023-01-20T01:29:40;26.96;29.75
65472;DHT22;52068;50.710;14.492;2023-01-20T01:32:05;26.54;30.28
65472;DHT22;52068;50.710;14.492;2023-01-20T01:34:31;26.18;30.89
65472;DHT22;52068;50.710;14.492;2023-01-20T01:36:56;25.80;31.47
65472;DHT22;52068;50.710;14.492;2023-01-20T01:39:22;25.46;31.97
65472;DHT22;52068;50.710;14.492;2023-01-20T01:41:47;25.19;32.41
65472;DHT22;52068;50.710;14.492;2023-01-20T01:44:13;24.90;32.91
65472;DHT22;52068;50.710;14.492;2023-01-20T01:46:38;24.65;33.39
65472;DHT22;52068;50.710;14.492;2023-01-20T01:49:09;24.68;33.41
65472;DHT22;52068;50.710;14.492;2023-01-20T01:51:37;25.19;32.57
65472;DHT22;52068;50.710;14.492;2023-01-20T01:54:13;26.03;31.39
65472;DHT22;52068;50.710;14.492;2023-01-20T01:56:39;26.98;29.89
65472;DHT22;52068;50.710;14.492;2023-01-20T01:59:06;27.87;28.67
65472;DHT22;52068;50.710;14.492;2023-01-20T02:01:32;28.62;27.60
65472;DHT22;52068;50.710;14.492;2023-01-20T02:04:01;29.31;26.67
65472;DHT22;52068;50.710;14.492;2023-01-20T02:06:28;29.74;26.09
65472;DHT22;52068;50.710;14.492;2023-01-20T02:08:55;29.96;25.83
65472;DHT22;52068;50.710;14.492;2023-01-20T02:11:21;29.90;25.81
65472;DHT22;52068;50.710;14.492;2023-01-20T02:13:46;29.61;26.19
65472;DHT22;52068;50.710;14.492;2023-01-20T02:16:13;29.08;26.80
65472;DHT22;52068;50.710;14.492;2023-01-20T02:23:42;27.60;28.81
65472;DHT22;52068;50.710;14.492;2023-01-20T02:31:18;26.25;30.64
65472;DHT22;52068;50.710;14.492;2023-01-20T02:33:53;25.80;31.29
65472;DHT22;52068;50.710;14.492;2023-01-20T02:36:28;25.47;31.88
65472;DHT22;52068;50.710;14.492;2023-01-20T02:39:03;25.15;32.39
65472;DHT22;52068;50.710;14.492;2023-01-20T02:41:38;24.94;32.84
65472;DHT22;52068;50.710;14.492;2023-01-20T02:44:09;24.87;33.06
65472;DHT22;52068;50.710;14.492;2023-01-20T02:46:40;25.07;32.61
65472;DHT22;52068;50.710;14.492;2023-01-20T02:54:13;26.45;30.57
65472;DHT22;52068;50.710;14.492;2023-01-20T02:56:39;26.76;30.07
65472;DHT22;52068;50.710;14.492;2023-01-20T02:59:07;26.94;29.73
65472;DHT22;52068;50.710;14.492;2023-01-20T03:02:19;26.94;29.82
65472;DHT22;52068;50.710;14.492;2023-01-20T03:04:21;26.68;30.08
65472;DHT22;52068;50.710;14.492;2023-01-20T03:06:51;26.45;30.48
65472;DHT22;52068;50.710;14.492;2023-01-20T03:09:19;26.17;30.87
65472;DHT22;52068;50.710;14.492;2023-01-20T03:11:48;25.89;31.25
65472;DHT22;52068;50.710;14.492;2023-01-20T03:14:14;25.61;31.70
65472;DHT22;52068;50.710;14.492;2023-01-20T03:16:41;25.35;31.98
65472;DHT22;52068;50.710;14.492;2023-01-20T03:19:06;25.11;32.31
65472;DHT22;52068;50.710;14.492;2023-01-20T03:21:32;24.85;32.81
65472;DHT22;52068;50.710;14.492;2023-01-20T03:23:59;24.68;33.18
65472;DHT22;52068;50.710;14.492;2023-01-20T03:26:25;24.77;33.11
65472;DHT22;52068;50.710;14.492;2023-01-20T03:28:50;25.04;32.69
65472;DHT22;52068;50.710;14.492;2023-01-20T03:33:54;26.03;31.20
65472;DHT22;52068;50.710;14.492;2023-01-20T03:36:20;26.54;30.49
65472;DHT22;52068;50.710;14.492;2023-01-20T03:38:46;27.07;29.68
65472;DHT22;52068;50.710;14.492;2023-01-20T03:46:37;27.50;28.98
65472;DHT22;52068;50.710;14.492;2023-01-20T03:51:50;26.96;29.69
65472;DHT22;52068;50.710;14.492;2023-01-20T03:54:14;26.54;30.32
65472;DHT22;52068;50.710;14.492;2023-01-20T03:56:41;26.17;30.84
65472;DHT22;52068;50.710;14.492;2023-01-20T03:59:08;25.84;31.37
65472;DHT22;52068;50.710;14.492;2023-01-20T04:01:35;25.52;31.82
65472;DHT22;52068;50.710;14.492;2023-01-20T04:04:02;25.21;32.28
65472;DHT22;52068;50.710;14.492;2023-01-20T04:06:29;24.95;32.61
65472;DHT22;52068;50.710;14.492;2023-01-20T04:09:00;24.67;33.24
65472;DHT22;52068;50.710;14.492;2023-01-20T04:11:26;24.40;33.71
65472;DHT22;52068;50.710;14.492;2023-01-20T04:13:52;24.30;33.96
65472;DHT22;52068;50.710;14.492;2023-01-20T04:16:17;24.52;33.74
65472;DHT22;52068;50.710;14.492;2023-01-20T04:18:48;25.19;32.60
65472;DHT22;52068;50.710;14.492;2023-01-20T04:21:15;26.21;30.98
65472;DHT22;52068;50.710;14.492;2023-01-20T04:23:45;27.25;29.42
65472;DHT22;52068;50.710;14.492;2023-01-20T04:26:13;28.16;28.09
65472;DHT22;52068;50.710;14.492;2023-01-20T04:28:38;29.06;26.92
65472;DHT22;52068;50.710;14.492;2023-01-20T04:31:03;29.75;26.01
65472;DHT22;52068;50.710;14.492;2023-01-20T04:33:29;30.25;25.37
65472;DHT22;52068;50.710;14.492;2023-01-20T04:35:54;30.52;25.08
65472;DHT22;52068;50.710;14.492;2023-01-20T04:38:19;30.52;25.06
65472;DHT22;52068;50.710;14.492;2023-01-20T04:40:45;30.25;25.31
65472;DHT22;52068;50.710;14.492;2023-01-20T04:43:10;29.79;25.91
65472;DHT22;52068;50.710;14.492;2023-01-20T04:45:36;29.27;26.56
65472;DHT22;52068;50.710;14.492;2023-01-20T04:48:04;28.75;27.22
65472;DHT22;52068;50.710;14.492;2023-01-20T04:50:30;28.18;27.93
65472;DHT22;52068;50.710;14.492;2023-01-20T04:52:55;27.68;28.58
65472;DHT22;52068;50.710;14.492;2023-01-20T04:55:20;27.20;29.23
65472;DHT22;52068;50.710;14.492;2023-01-20T04:57:46;26.75;29.96
65472;DHT22;52068;50.710;14.492;2023-01-20T05:00:12;26.31;30.58
65472;DHT22;52068;50.710;14.492;2023-01-20T05:02:42;25.92;31.19
65472;DHT22;52068;50.710;14.492;2023-01-20T05:05:08;25.56;31.74
65472;DHT22;52068;50.710;14.492;2023-01-20T05:07:33;25.24;32.25
65472;DHT22;52068;50.710;14.492;2023-01-20T05:09:58;25.05;32.59
65472;DHT22;52068;50.710;14.492;2023-01-20T05:12:23;25.11;32.62
65472;DHT22;52068;50.710;14.492;2023-01-20T05:14:49;25.39;32.28
65472;DHT22;52068;50.710;14.492;2023-01-20T05:17:14;25.80;31.54
65472;DHT22;52068;50.710;14.492;2023-01-20T05:19:39;26.37;30.69
65472;DHT22;52068;50.710;14.492;2023-01-20T05:22:04;26.91;29.92
65472;DHT22;52068;50.710;14.492;2023-01-20T05:24:30;27.29;29.24
65472;DHT22;52068;50.710;14.492;2023-01-20T05:26:57;27.54;28.90
65472;DHT22;52068;50.710;14.492;2023-01-20T05:29:23;27.63;28.68
65472;DHT22;52068;50.710;14.492;2023-01-20T05:31:49;27.49;28.88
65472;DHT22;52068;50.710;14.492;2023-01-20T05:34:14;27.20;29.29
65472;DHT22;52068;50.710;14.492;2023-01-20T05:36:40;26.94;29.60
65472;DHT22;52068;50.710;14.492;2023-01-20T05:39:05;26.58;30.13
65472;DHT22;52068;50.710;14.492;2023-01-20T05:41:31;26.27;30.61
65472;DHT22;52068;50.710;14.492;2023-01-20T05:43:56;25.98;31.07
65472;DHT22;52068;50.710;14.492;2023-01-20T05:46:21;25.69;31.45
65472;DHT22;52068;50.710;14.492;2023-01-20T05:48:46;25.41;31.84
65472;DHT22;52068;50.710;14.492;2023-01-20T05:51:12;25.19;32.31
65472;DHT22;52068;50.710;14.492;2023-01-20T05:53:37;25.11;32.46
65472;DHT22;52068;50.710;14.492;2023-01-20T05:56:03;25.26;32.29
65472;DHT22;52068;50.710;14.492;2023-01-20T05:58:29;25.62;31.82
65472;DHT22;52068;50.710;14.492;2023-01-20T06:00:54;26.16;31.07
65472;DHT22;52068;50.710;14.492;2023-01-20T06:03:19;27.05;29.69
65472;DHT22;52068;50.710;14.492;2023-01-20T06:05:45;27.90;28.47
65472;DHT22;52068;50.710;14.492;2023-01-20T06:08:13;28.53;27.57
65472;DHT22;52068;50.710;14.492;2023-01-20T06:10:38;28.86;27.19
65472;DHT22;52068;50.710;14.492;2023-01-20T06:13:03;28.97;27.00
65472;DHT22;52068;50.710;14.492;2023-01-20T06:15:29;28.86;27.09
65472;DHT22;52068;50.710;14.492;2023-01-20T06:17:54;28.57;27.42
65472;DHT22;52068;50.710;14.492;2023-01-20T06:20:19;28.18;27.96
65472;DHT22;52068;50.710;14.492;2023-01-20T06:22:45;27.77;28.54
65472;DHT22;52068;50.710;14.492;2023-01-20T06:25:10;27.35;29.12
65472;DHT22;52068;50.710;14.492;2023-01-20T06:27:35;26.95;29.68
65472;DHT22;52068;50.710;14.492;2023-01-20T06:30:02;26.56;30.17
65472;DHT22;52068;50.710;14.492;2023-01-20T06:32:27;26.18;30.75
65472;DHT22;52068;50.710;14.492;2023-01-20T06:34:52;25.84;31.27
65472;DHT22;52068;50.710;14.492;2023-01-20T06:37:18;25.53;31.71
65472;DHT22;52068;50.710;14.492;2023-01-20T06:39:43;25.18;32.25
65472;DHT22;52068;50.710;14.492;2023-01-20T06:42:08;24.94;32.78
65472;DHT22;52068;50.710;14.492;2023-01-20T06:44:34;24.98;32.86
65472;DHT22;52068;50.710;14.492;2023-01-20T06:46:59;25.47;32.06
65472;DHT22;52068;50.710;14.492;2023-01-20T06:49:24;26.20;30.98
65472;DHT22;52068;50.710;14.492;2023-01-20T06:51:50;26.98;29.72
65472;DHT22;52068;50.710;14.492;2023-01-20T06:54:15;27.77;28.62
65472;DHT22;52068;50.710;14.492;2023-01-20T06:56:41;28.55;27.55
65472;DHT22;52068;50.710;14.492;2023-01-20T06:59:06;29.18;26.70
65472;DHT22;52068;50.710;14.492;2023-01-20T07:01:31;29.68;26.05
65472;DHT22;52068;50.710;14.492;2023-01-20T07:03:57;29.99;25.72
65472;DHT22;52068;50.710;14.492;2023-01-20T07:06:29;30.12;25.54
65472;DHT22;52068;50.710;14.492;2023-01-20T07:08:55;30.16;25.47
65472;DHT22;52068;50.710;14.492;2023-01-20T07:11:21;30.12;25.51
65472;DHT22;52068;50.710;14.492;2023-01-20T07:13:46;29.85;25.86
65472;DHT22;52068;50.710;14.492;2023-01-20T07:16:11;29.51;26.32
65472;DHT22;52068;50.710;14.492;2023-01-20T07:18:37;29.14;26.78
65472;DHT22;52068;50.710;14.492;2023-01-20T07:21:02;28.82;27.27
65472;DHT22;52068;50.710;14.492;2023-01-20T07:23:28;28.42;27.78
65472;DHT22;52068;50.710;14.492;2023-01-20T07:25:59;28.04;28.24
65472;DHT22;52068;50.710;14.492;2023-01-20T07:28:25;27.61;28.69
65472;DHT22;52068;50.710;14.492;2023-01-20T07:30:50;27.20;29.33
65472;DHT22;52068;50.710;14.492;2023-01-20T07:33:16;26.78;29.71
65472;DHT22;52068;50.710;14.492;2023-01-20T07:35:41;26.40;30.22
65472;DHT22;52068;50.710;14.492;2023-01-20T07:38:06;26.06;30.76
65472;DHT22;52068;50.710;14.492;2023-01-20T07:40:31;25.77;31.19
65472;DHT22;52068;50.710;14.492;2023-01-20T07:42:57;25.45;31.66
65472;DHT22;52068;50.710;14.492;2023-01-20T07:45:22;25.16;32.16
65472;DHT22;52068;50.710;14.492;2023-01-20T07:47:47;24.94;32.55
65472;DHT22;52068;50.710;14.492;2023-01-20T07:50:12;24.81;32.75
65472;DHT22;52068;50.710;14.492;2023-01-20T07:52:38;24.74;32.99
65472;DHT22;52068;50.710;14.492;2023-01-20T07:55:03;24.73;32.97
65472;DHT22;52068;50.710;14.492;2023-01-20T07:57:28;24.80;32.99
65472;DHT22;52068;50.710;14.492;2023-01-20T07:59:54;24.90;32.87
65472;DHT22;52068;50.710;14.492;2023-01-20T08:02:19;25.11;32.46
65472;DHT22;52068;50.710;14.492;2023-01-20T08:04:44;25.34;32.17
65472;DHT22;52068;50.710;14.492;2023-01-20T08:07:10;25.53;31.82
65472;DHT22;52068;50.710;14.492;2023-01-20T08:09:35;25.75;31.46
65472;DHT22;52068;50.710;14.492;2023-01-20T08:12:00;26.01;31.09
65472;DHT22;52068;50.710;14.492;2023-01-20T08:14:26;26.25;30.65
65472;DHT22;52068;50.710;14.492;2023-01-20T08:16:51;26.51;30.34
65472;DHT22;52068;50.710;14.492;2023-01-20T08:19:16;26.69;30.03
65472;DHT22;52068;50.710;14.492;2023-01-20T08:21:42;26.91;29.71
65472;DHT22;52068;50.710;14.492;2023-01-20T08:24:08;27.07;29.53
65472;DHT22;52068;50.710;14.492;2023-01-20T08:26:34;27.20;29.35
65472;DHT22;52068;50.710;14.492;2023-01-20T08:29:08;27.30;29.13
65472;DHT22;52068;50.710;14.492;2023-01-20T08:31:34;27.42;29.00
65472;DHT22;52068;50.710;14.492;2023-01-20T08:34:00;27.42;29.00
65472;DHT22;52068;50.710;14.492;2023-01-20T08:36:27;27.27;29.22
65472;DHT22;52068;50.710;14.492;2023-01-20T08:38:53;27.10;29.48
65472;DHT22;52068;50.710;14.492;2023-01-20T08:41:20;26.85;29.83
65472;DHT22;52068;50.710;14.492;2023-01-20T08:43:46;26.56;30.17
65472;DHT22;52068;50.710;14.492;2023-01-20T08:46:12;26.30;30.64
65472;DHT22;52068;50.710;14.492;2023-01-20T08:48:38;25.98;31.07
65472;DHT22;52068;50.710;14.492;2023-01-20T08:51:04;25.73;31.46
65472;DHT22;52068;50.710;14.492;2023-01-20T08:53:31;25.46;31.83
65472;DHT22;52068;50.710;14.492;2023-01-20T08:55:57;25.22;32.19
65472;DHT22;52068;50.710;14.492;2023-01-20T08:58:23;25.01;32.58
65472;DHT22;52068;50.710;14.492;2023-01-20T09:00:48;24.78;32.97
65472;DHT22;52068;50.710;14.492;2023-01-20T09:03:14;24.53;33.47
65472;DHT22;52068;50.710;14.492;2023-01-20T09:05:39;24.33;33.80
65472;DHT22;52068;50.710;14.492;2023-01-20T09:08:04;24.26;33.98
65472;DHT22;52068;50.710;14.492;2023-01-20T09:10:33;24.36;33.86
65472;DHT22;52068;50.710;14.492;2023-01-20T09:12:58;24.77;33.29
65472;DHT22;52068;50.710;14.492;2023-01-20T09:15:23;25.31;32.29
65472;DHT22;52068;50.710;14.492;2023-01-20T09:17:49;26.07;31.17
65472;DHT22;52068;50.710;14.492;2023-01-20T09:20:14;26.72;30.18
65472;DHT22;52068;50.710;14.492;2023-01-20T09:22:39;27.36;29.21
65472;DHT22;52068;50.710;14.492;2023-01-20T09:25:05;27.95;28.37
65472;DHT22;52068;50.710;14.492;2023-01-20T09:27:31;28.49;27.64
65472;DHT22;52068;50.710;14.492;2023-01-20T09:29:56;28.99;26.99
65472;DHT22;52068;50.710;14.492;2023-01-20T09:32:21;29.21;26.65
65472;DHT22;52068;50.710;14.492;2023-01-20T09:34:47;29.39;26.39
65472;DHT22;52068;50.710;14.492;2023-01-20T09:37:12;29.33;26.49
65472;DHT22;52068;50.710;14.492;2023-01-20T09:39:56;29.08;26.80
65472;DHT22;52068;50.710;14.492;2023-01-20T09:43:43;28.75;27.20
65472;DHT22;52068;50.710;14.492;2023-01-20T09:45:54;28.28;27.84
65472;DHT22;52068;50.710;14.492;2023-01-20T09:51:10;27.26;29.20
65472;DHT22;52068;50.710;14.492;2023-01-20T09:54:01;26.75;29.90
65472;DHT22;52068;50.710;14.492;2023-01-20T09:56:28;26.35;30.46
65472;DHT22;52068;50.710;14.492;2023-01-20T10:03:58;25.39;31.99
65472;DHT22;52068;50.710;14.492;2023-01-20T10:06:26;25.11;32.47
65472;DHT22;52068;50.710;14.492;2023-01-20T10:08:56;24.94;32.81
65472;DHT22;52068;50.710;14.492;2023-01-20T10:11:22;24.95;32.93
65472;DHT22;52068;50.710;14.492;2023-01-20T10:13:55;25.16;32.60
65472;DHT22;52068;50.710;14.492;2023-01-20T10:19:02;26.07;31.11
65472;DHT22;52068;50.710;14.492;2023-01-20T10:23:59;26.94;29.79
65472;DHT22;52068;50.710;14.492;2023-01-20T10:26:28;27.17;29.37
65472;DHT22;52068;50.710;14.492;2023-01-20T10:28:57;27.35;29.15
65472;DHT22;52068;50.710;14.492;2023-01-20T10:31:24;27.43;29.05
65472;DHT22;52068;50.710;14.492;2023-01-20T10:33:51;27.44;29.04
65472;DHT22;52068;50.710;14.492;2023-01-20T10:36:23;27.39;29.09
65472;DHT22;52068;50.710;14.492;2023-01-20T10:41:27;27.16;29.52
65472;DHT22;52068;50.710;14.492;2023-01-20T10:43:56;26.98;29.73
65472;DHT22;52068;50.710;14.492;2023-01-20T10:46:34;26.74;30.11
65472;DHT22;52068;50.710;14.492;2023-01-20T10:49:11;26.47;30.52
65472;DHT22;52068;50.710;14.492;2023-01-20T10:54:56;26.04;31.18
65472;DHT22;52068;50.710;14.492;2023-01-20T10:57:23;25.89;31.41
65472;DHT22;52068;50.710;14.492;2023-01-20T10:59:49;25.73;31.73
65472;DHT22;52068;50.710;14.492;2023-01-20T11:02:29;25.53;31.98
65472;DHT22;52068;50.710;14.492;2023-01-20T11:05:29;25.35;32.27
65472;DHT22;52068;50.710;14.492;2023-01-20T11:07:48;25.18;32.52
65472;DHT22;52068;50.710;14.492;2023-01-20T11:10:15;25.07;32.77
65472;DHT22;52068;50.710;14.492;2023-01-20T11:12:42;24.96;32.94
65472;DHT22;52068;50.710;14.492;2023-01-20T11:15:15;24.87;33.18
65472;DHT22;52068;50.710;14.492;2023-01-20T11:17:40;24.74;33.40
65472;DHT22;52068;50.710;14.492;2023-01-20T11:20:06;24.64;33.56
65472;DHT22;52068;50.710;14.492;2023-01-20T11:22:32;24.52;33.83
65472;DHT22;52068;50.710;14.492;2023-01-20T11:24:58;24.40;33.95
65472;DHT22;52068;50.710;14.492;2023-01-20T11:27:28;24.23;34.29
65472;DHT22;52068;50.710;14.492;2023-01-20T11:29:57;24.08;34.50
65472;DHT22;52068;50.710;14.492;2023-01-20T11:34:48;23.89;34.79
65472;DHT22;52068;50.710;14.492;2023-01-20T11:37:24;23.84;34.96
65472;DHT22;52068;50.710;14.492;2023-01-20T11:44:57;24.44;34.09
65472;DHT22;52068;50.710;14.492;2023-01-20T11:47:24;25.01;33.18
65472;DHT22;52068;50.710;14.492;2023-01-20T11:50:15;25.63;32.24
65472;DHT22;52068;50.710;14.492;2023-01-20T11:52:43;26.37;31.05
65472;DHT22;52068;50.710;14.492;2023-01-20T11:57:36;27.56;29.20
65472;DHT22;52068;50.710;14.492;2023-01-20T12:00:02;28.11;28.41
65472;DHT22;52068;50.710;14.492;2023-01-20T12:02:27;28.45;27.87
65472;DHT22;52068;50.710;14.492;2023-01-20T12:07:46;28.89;27.23
65472;DHT22;52068;50.710;14.492;2023-01-20T12:10:18;28.70;27.40
65472;DHT22;52068;50.710;14.492;2023-01-20T12:12:47;28.52;27.72
65472;DHT22;52068;50.710;14.492;2023-01-20T12:15:26;28.15;28.20
65472;DHT22;52068;50.710;14.492;2023-01-20T12:20:45;27.30;29.37
65472;DHT22;52068;50.710;14.492;2023-01-20T12:25:44;26.55;30.45
65472;DHT22;52068;50.710;14.492;2023-01-20T12:28:18;26.18;31.04
65472;DHT22;52068;50.710;14.492;2023-01-20T12:33:16;25.55;32.03
65472;DHT22;52068;50.710;14.492;2023-01-20T12:35:47;25.24;32.50
65472;DHT22;52068;50.710;14.492;2023-01-20T12:38:17;24.98;32.95
65472;DHT22;52068;50.710;14.492;2023-01-20T12:40:46;24.78;33.30
65472;DHT22;52068;50.710;14.492;2023-01-20T12:53:38;27.15;29.73
65472;DHT22;52068;50.710;14.492;2023-01-20T13:06:48;28.92;27.31
65472;DHT22;52068;50.710;14.492;2023-01-20T13:09:28;29.04;27.18
65472;DHT22;52068;50.710;14.492;2023-01-20T13:11:58;29.07;27.09
65472;DHT22;52068;50.710;14.492;2023-01-20T13:14:36;29.06;27.07
65472;DHT22;52068;50.710;14.492;2023-01-20T13:19:35;28.82;27.38
65472;DHT22;52068;50.710;14.492;2023-01-20T13:22:07;28.75;27.52
65472;DHT22;52068;50.710;14.492;2023-01-20T13:24:33;28.53;27.72
65472;DHT22;52068;50.710;14.492;2023-01-20T13:26:59;28.31;28.04
65472;DHT22;52068;50.710;14.492;2023-01-20T13:31:59;27.74;28.89
65472;DHT22;52068;50.710;14.492;2023-01-20T13:42:24;26.43;30.85
65472;DHT22;52068;50.710;14.492;2023-01-20T13:45:08;26.08;31.26
65472;DHT22;52068;50.710;14.492;2023-01-20T13:57:51;24.70;33.61
65472;DHT22;52068;50.710;14.492;2023-01-20T14:00:22;24.78;33.58
65472;DHT22;52068;50.710;14.492;2023-01-20T14:02:48;25.16;33.03
65472;DHT22;52068;50.710;14.492;2023-01-20T14:05:24;25.79;32.01
65472;DHT22;52068;50.710;14.492;2023-01-20T14:07:50;26.54;30.77
65472;DHT22;52068;50.710;14.492;2023-01-20T14:10:15;27.22;29.81
65472;DHT22;52068;50.710;14.492;2023-01-20T14:12:41;27.77;28.93
65472;DHT22;52068;50.710;14.492;2023-01-20T14:15:06;28.29;28.24
65472;DHT22;52068;50.710;14.492;2023-01-20T14:17:51;28.73;27.58
65472;DHT22;52068;50.710;14.492;2023-01-20T14:20:20;28.99;27.20
65472;DHT22;52068;50.710;14.492;2023-01-20T14:22:47;29.17;26.94
65472;DHT22;52068;50.710;14.492;2023-01-20T14:25:20;29.14;27.00
65472;DHT22;52068;50.710;14.492;2023-01-20T14:27:46;28.89;27.30
65472;DHT22;52068;50.710;14.492;2023-01-20T14:32:42;28.22;28.35
65472;DHT22;52068;50.710;14.492;2023-01-20T14:35:24;27.78;29.03
65472;DHT22;52068;50.710;14.492;2023-01-20T14:37:52;27.36;29.69
65472;DHT22;52068;50.710;14.492;2023-01-20T14:40:22;26.91;30.37
65472;DHT22;52068;50.710;14.492;2023-01-20T14:45:20;26.12;31.71
65472;DHT22;52068;50.710;14.492;2023-01-20T14:47:47;25.82;32.24
65472;DHT22;52068;50.710;14.492;2023-01-20T14:50:13;25.50;32.75
65472;DHT22;52068;50.710;14.492;2023-01-20T14:52:38;25.22;33.24
65472;DHT22;52068;50.710;14.492;2023-01-20T14:55:04;25.01;33.72
65472;DHT22;52068;50.710;14.492;2023-01-20T15:02:30;25.08;33.88
65472;DHT22;52068;50.710;14.492;2023-01-20T15:04:56;25.31;33.55
65472;DHT22;52068;50.710;14.492;2023-01-20T15:07:21;25.62;33.02
65472;DHT22;52068;50.710;14.492;2023-01-20T15:09:50;25.94;32.48
65472;DHT22;52068;50.710;14.492;2023-01-20T15:17:30;26.56;31.43
65472;DHT22;52068;50.710;14.492;2023-01-20T15:19:56;26.64;31.39
65472;DHT22;52068;50.710;14.492;2023-01-20T15:22:22;26.61;31.49
65472;DHT22;52068;50.710;14.492;2023-01-20T15:24:48;26.55;31.57
65472;DHT22;52068;50.710;14.492;2023-01-20T15:27:27;26.49;31.72
65472;DHT22;52068;50.710;14.492;2023-01-20T15:30:12;26.44;31.77
65472;DHT22;52068;50.710;14.492;2023-01-20T15:32:38;26.40;31.94
65472;DHT22;52068;50.710;14.492;2023-01-20T15:35:03;26.35;32.00
65472;DHT22;52068;50.710;14.492;2023-01-20T15:37:29;26.30;32.07
65472;DHT22;52068;50.710;14.492;2023-01-20T15:39:54;26.27;32.19
65472;DHT22;52068;50.710;14.492;2023-01-20T15:42:19;26.25;32.31
65472;DHT22;52068;50.710;14.492;2023-01-20T15:44:44;26.30;32.21
65472;DHT22;52068;50.710;14.492;2023-01-20T15:47:28;26.37;32.09
65472;DHT22;52068;50.710;14.492;2023-01-20T15:49:55;26.47;32.01
65472;DHT22;52068;50.710;14.492;2023-01-20T15:52:21;26.51;32.03
65472;DHT22;52068;50.710;14.492;2023-01-20T15:54:46;26.54;31.97
65472;DHT22;52068;50.710;14.492;2023-01-20T15:57:11;26.56;31.93
65472;DHT22;52068;50.710;14.492;2023-01-20T15:59:38;26.55;31.88
65472;DHT22;52068;50.710;14.492;2023-01-20T16:02:03;26.48;31.99
65472;DHT22;52068;50.710;14.492;2023-01-20T16:04:35;26.37;32.18
65472;DHT22;52068;50.710;14.492;2023-01-20T16:07:00;26.21;32.46
65472;DHT22;52068;50.710;14.492;2023-01-20T16:09:26;26.00;32.73
65472;DHT22;52068;50.710;14.492;2023-01-20T16:11:53;25.76;33.21
65472;DHT22;52068;50.710;14.492;2023-01-20T16:14:19;25.52;33.57
65472;DHT22;52068;50.710;14.492;2023-01-20T16:16:44;25.26;34.00
65472;DHT22;52068;50.710;14.492;2023-01-20T16:19:13;25.04;34.44
65472;DHT22;52068;50.710;14.492;2023-01-20T16:21:38;24.81;34.79
65472;DHT22;52068;50.710;14.492;2023-01-20T16:24:03;24.56;35.15
65472;DHT22;52068;50.710;14.492;2023-01-20T16:26:30;24.36;35.58
65472;DHT22;52068;50.710;14.492;2023-01-20T16:28:56;24.23;35.83
65472;DHT22;52068;50.710;14.492;2023-01-20T16:31:22;24.39;35.68
65472;DHT22;52068;50.710;14.492;2023-01-20T16:33:47;24.91;34.75
65472;DHT22;52068;50.710;14.492;2023-01-20T16:36:16;25.72;33.59
65472;DHT22;52068;50.710;14.492;2023-01-20T16:38:42;26.56;32.13
65472;DHT22;52068;50.710;14.492;2023-01-20T16:43:41;28.15;29.69
65472;DHT22;52068;50.710;14.492;2023-01-20T16:46:13;28.92;28.58
65472;DHT22;52068;50.710;14.492;2023-01-20T16:48:39;29.61;27.63
65472;DHT22;52068;50.710;14.492;2023-01-20T16:51:04;30.08;27.03
65472;DHT22;52068;50.710;14.492;2023-01-20T16:53:30;30.26;26.75
65472;DHT22;52068;50.710;14.492;2023-01-20T16:55:56;30.30;26.68
65472;DHT22;52068;50.710;14.492;2023-01-20T16:58:21;30.26;26.72
65472;DHT22;52068;50.710;14.492;2023-01-20T17:00:46;29.99;27.04
65472;DHT22;52068;50.710;14.492;2023-01-20T17:03:11;29.58;27.58
65472;DHT22;52068;50.710;14.492;2023-01-20T17:05:37;29.13;28.24
65472;DHT22;52068;50.710;14.492;2023-01-20T17:08:02;28.63;28.83
65472;DHT22;52068;50.710;14.492;2023-01-20T17:10:28;28.11;29.56
65472;DHT22;52068;50.710;14.492;2023-01-20T17:12:54;27.66;30.27
65472;DHT22;52068;50.710;14.492;2023-01-20T17:15:19;27.17;30.92
65472;DHT22;52068;50.710;14.492;2023-01-20T17:17:52;26.75;31.51
65472;DHT22;52068;50.710;14.492;2023-01-20T17:20:22;26.35;32.18
65472;DHT22;52068;50.710;14.492;2023-01-20T17:22:49;25.97;32.85
65472;DHT22;52068;50.710;14.492;2023-01-20T17:25:15;25.65;33.37